Melbourne, Iowa
Current Conditions -  °F | °C
As of 3:53 AM on Thursday 29 Jan 2015 (Local Time) from KMIW Reporting Station
Overcast Overcast  
Wind Chill: 22°   Ceiling: 1600
Heat Index: 34°   Visibility: 8mi
Dew Point: 30°   Wind: 22mph
Humidity: 85%   Direction: 330°NNW
Pressure: 29.91"   Gusts: 29mph
Location:  41.94°N, 93.1°W
Report Text: KMIW 290953Z AUTO 33019G25KT 8SM OVC016 01/M01 A2991 RMK AO2 PK WND 34027/0922 SLP137 T00111011
Loading
Personal Weather Stations






























Interactive Weather Map New forecast layout! Learn more

10-Day Weather Forecast

Advertisements
Track Severe Weather on mobile